Time;durP1;ratioP1;P1;durP2;ratioP2;P2;SDS_P1;SDS_P2;PMS_P1;PMS_P2;Temp;Humidity;BMP_temperature;BMP_pressure;BME280_temperature;BME280_humidity;BME280_pressure;Samples;Min_cycle;Max_cycle;Signal;HPM_P1;HPM_P2
2022/10/26 00:01:09;;;;;;;9.35;4.75;;;;;;;12.67;86.62;101431.06;5028969;28;20050;-50
2022/10/26 00:03:36;;;;;;;9.75;4.70;;;;;;;12.66;86.35;101421.56;5033422;28;20021;-51
2022/10/26 00:06:07;;;;;;;8.70;5.00;;;;;;;12.66;86.17;101425.03;5026576;28;20050;-51
2022/10/26 00:08:33;;;;;;;12.38;4.93;;;;;;;12.64;86.42;101415.50;5029926;28;20033;-49
2022/10/26 00:10:58;;;;;;;9.63;5.20;;;;;;;12.62;86.44;101420.63;5044410;28;20120;-51
2022/10/26 00:13:24;;;;;;;7.82;4.63;;;;;;;12.62;86.58;101412.91;5035268;28;20116;-50
2022/10/26 00:15:49;;;;;;;9.23;5.00;;;;;;;12.59;86.43;101410.22;5029690;28;20095;-50
2022/10/26 00:18:14;;;;;;;9.35;4.90;;;;;;;12.64;86.78;101400.03;5033726;28;20030;-49
2022/10/26 00:20:41;;;;;;;9.25;4.65;;;;;;;12.63;86.68;101399.16;5030697;28;20035;-51
2022/10/26 00:23:06;;;;;;;12.98;4.80;;;;;;;12.63;86.66;101395.72;5029613;28;20116;-50
2022/10/26 00:25:32;;;;;;;10.35;4.97;;;;;;;12.64;86.78;101394.88;5031352;28;20120;-51
2022/10/26 00:27:57;;;;;;;12.65;4.53;;;;;;;12.64;86.82;101385.41;5030129;28;20037;-51
2022/10/26 00:30:22;;;;;;;12.65;4.63;;;;;;;12.64;86.84;101384.53;5031794;28;20037;-48
2022/10/26 00:32:48;;;;;;;10.55;4.55;;;;;;;12.64;87.02;101385.41;5032113;28;20056;-51
2022/10/26 00:35:13;;;;;;;7.53;4.63;;;;;;;12.65;87.16;101378.56;5027449;28;20029;-50
2022/10/26 00:37:38;;;;;;;10.80;4.47;;;;;;;12.64;87.27;101380.25;5026742;28;20038;-50
2022/10/26 00:40:04;;;;;;;9.73;4.80;;;;;;;12.66;87.30;101382.88;5029741;28;20025;-50
2022/10/26 00:42:30;;;;;;;7.85;5.03;;;;;;;12.66;87.41;101376.00;5027978;28;20041;-51
2022/10/26 00:45:03;;;;;;;9.00;4.50;;;;;;;12.69;87.57;101376.09;5025210;28;20037;-51
2022/10/26 00:48:00;;;;;;;9.23;4.35;;;;;;;12.76;87.21;101369.41;5033342;28;20513;-51
2022/10/26 00:50:40;;;;;;;10.43;4.38;;;;;;;12.72;87.63;101365.84;5028211;28;20037;-49
2022/10/26 00:53:07;;;;;;;11.52;4.25;;;;;;;12.69;87.82;101363.22;5031431;28;20025;-50
2022/10/26 00:55:36;;;;;;;8.35;4.00;;;;;;;12.73;87.64;101377.91;5028133;28;20032;-51
2022/10/26 00:58:05;;;;;;;11.07;4.53;;;;;;;12.70;87.89;101383.00;5027906;28;20448;-51
2022/10/26 01:00:31;;;;;;;8.52;4.63;;;;;;;12.72;87.85;101383.91;5028017;28;20429;-50
2022/10/26 01:03:00;;;;;;;8.02;4.35;;;;;;;12.74;87.79;101387.44;5027991;28;20025;-50
2022/10/26 01:05:26;;;;;;;11.93;4.53;;;;;;;12.74;88.12;101379.69;5027909;28;20128;-50
2022/10/26 01:07:53;;;;;;;8.30;4.30;;;;;;;12.76;87.98;101379.72;5030694;28;20091;-50
2022/10/26 01:10:19;;;;;;;13.80;4.90;;;;;;;12.74;88.02;101378.78;5029532;28;20043;-51
2022/10/26 01:12:45;;;;;;;7.35;4.38;;;;;;;12.74;88.20;101371.94;5030822;28;20087;-51
2022/10/26 01:15:10;;;;;;;11.25;4.35;;;;;;;12.70;88.19;101370.09;5028837;28;20128;-51
2022/10/26 01:17:53;;;;;;;7.30;4.28;;;;;;;12.78;88.16;101372.88;5030607;28;20549;-51
2022/10/26 01:20:46;;;;;;;7.32;4.63;;;;;;;12.77;88.24;101356.53;5027748;28;20044;-50
2022/10/26 01:23:35;;;;;;;8.45;5.15;;;;;;;12.79;88.33;101351.41;5033812;28;20075;-48
2022/10/26 01:26:24;;;;;;;;;;;;;;;12.90;87.50;101350.00;5034482;28;20379;-51
2022/10/26 01:29:32;;;;;;;11.55;4.97;;;;;;;12.83;88.48;101359.28;5060203;28;19919;-50
2022/10/26 01:32:01;;;;;;;8.60;4.75;;;;;;;12.78;88.81;101355.69;5038679;28;20029;-46
2022/10/26 01:34:36;;;;;;;11.63;4.88;;;;;;;12.76;88.92;101349.63;5038454;28;20028;-51
2022/10/26 01:37:09;;;;;;;11.00;4.97;;;;;;;12.77;88.85;101347.91;5034718;28;21922;-50
2022/10/26 01:39:47;;;;;;;9.88;4.65;;;;;;;12.77;89.06;101350.50;5037665;28;20021;-52
2022/10/26 01:42:16;;;;;;;10.25;4.95;;;;;;;12.75;89.00;101342.72;5041592;28;20046;-51
2022/10/26 01:44:47;;;;;;;17.10;5.15;;;;;;;12.75;89.20;101345.31;5037242;28;20030;-49
2022/10/26 01:47:14;;;;;;;10.63;4.30;;;;;;;12.74;89.10;101340.09;5035343;28;20056;-50
2022/10/26 01:49:52;;;;;;;8.90;4.65;;;;;;;12.75;89.26;101342.72;5030783;28;20036;-51
2022/10/26 01:52:19;;;;;;;13.80;4.45;;;;;;;12.73;89.32;101326.31;5033872;28;20030;-50
2022/10/26 01:54:44;;;;;;;7.40;4.60;;;;;;;12.73;89.69;101322.84;5038895;28;20049;-51
2022/10/26 01:57:13;;;;;;;11.23;4.75;;;;;;;12.73;89.19;101323.72;5043698;28;20060;-51
2022/10/26 02:00:00;;;;;;;8.30;4.82;;;;;;;12.80;89.29;101322.19;5042044;28;20485;-51
2022/10/26 02:02:57;;;;;;;11.35;5.25;;;;;;;12.79;89.15;101317.84;5042885;28;20033;-51
2022/10/26 02:05:40;;;;;;;9.98;4.60;;;;;;;12.81;89.21;101317.09;5035747;28;20100;-51
2022/10/26 02:08:51;;;;;;;12.70;4.85;;;;;;;12.79;89.44;101317.84;5046426;28;20450;-51
2022/10/26 02:11:22;;;;;;;11.65;4.88;;;;;;;12.76;89.36;101307.47;5038163;28;20017;-51
2022/10/26 02:13:58;;;;;;;10.05;4.40;;;;;;;12.74;89.63;101319.44;5040080;28;20478;-50
2022/10/26 02:16:25;;;;;;;8.73;4.35;;;;;;;12.72;89.50;101322.00;5027308;28;20034;-48
2022/10/26 02:19:03;;;;;;;9.00;4.20;;;;;;;12.74;89.62;101315.19;5040697;28;20021;-50
2022/10/26 02:21:36;;;;;;;6.90;4.05;;;;;;;12.74;89.54;101322.03;5043808;28;20103;-51
2022/10/26 02:24:03;;;;;;;13.65;4.70;;;;;;;12.72;89.50;101311.66;5040631;28;20571;-51
2022/10/26 02:26:30;;;;;;;7.63;4.03;;;;;;;12.65;89.67;101314.06;5032457;28;20084;-51
2022/10/26 02:29:01;;;;;;;11.85;4.18;;;;;;;12.71;89.61;101314.22;5043620;28;20025;-51
2022/10/26 02:31:27;;;;;;;7.90;3.75;;;;;;;12.69;89.66;101318.47;5031156;28;20053;-51
2022/10/26 02:33:58;;;;;;;9.95;4.03;;;;;;;12.68;89.59;101309.84;5043912;28;20041;-51
2022/10/26 02:36:27;;;;;;;12.20;4.38;;;;;;;12.68;89.80;101307.28;5036977;28;20032;-49
2022/10/26 02:38:54;;;;;;;10.32;3.92;;;;;;;12.70;89.53;101304.72;5029486;28;20080;-51
2022/10/26 02:41:22;;;;;;;8.90;4.47;;;;;;;12.70;89.54;101299.56;5038416;28;20029;-51
2022/10/26 02:44:37;;;;;;;12.90;4.67;;;;;;;12.76;89.40;101297.16;5037750;28;20120;-52
2022/10/26 02:47:02;;;;;;;8.43;4.00;;;;;;;12.72;89.63;101295.31;5023890;28;20396;-51
2022/10/26 02:49:28;;;;;;;9.13;3.92;;;;;;;12.69;89.92;101288.38;5039036;28;20029;-50
2022/10/26 02:52:11;;;;;;;8.75;4.05;;;;;;;12.77;89.59;101293.72;5034276;28;20083;-51
2022/10/26 02:55:08;;;;;;;7.93;4.13;;;;;;;12.74;89.63;101285.91;5037353;28;20091;-49
2022/10/26 02:57:42;;;;;;;6.90;3.40;;;;;;;12.72;89.72;101291.03;5031540;28;20040;-51
2022/10/26 03:00:14;;;;;;;8.07;3.75;;;;;;;12.71;89.89;101283.25;5038127;28;20025;-47
2022/10/26 03:02:44;;;;;;;7.68;3.38;;;;;;;12.69;89.70;101288.38;5029996;28;20042;-51
2022/10/26 03:05:18;;;;;;;9.98;3.50;;;;;;;12.67;90.02;101282.28;5023661;28;20045;-51
2022/10/26 03:07:43;;;;;;;9.60;3.60;;;;;;;12.67;89.87;101286.56;5027060;28;20040;-51
2022/10/26 03:10:09;;;;;;;9.10;4.00;;;;;;;12.67;89.47;101282.28;5030283;28;20029;-48
2022/10/26 03:12:35;;;;;;;8.57;3.55;;;;;;;12.67;89.77;101277.13;5051176;28;21083;-51
2022/10/26 03:15:00;;;;;;;11.38;3.95;;;;;;;12.67;89.64;101276.25;5034336;28;20067;-51
2022/10/26 03:17:25;;;;;;;8.23;3.63;;;;;;;12.65;89.97;101278.81;5027695;28;20626;-49
2022/10/26 03:19:51;;;;;;;8.32;3.78;;;;;;;12.66;89.97;101277.97;5044045;28;20021;-49
2022/10/26 03:22:16;;;;;;;8.70;4.00;;;;;;;12.67;90.01;101274.53;5035102;28;20036;-50
2022/10/26 03:24:42;;;;;;;8.20;3.53;;;;;;;12.69;90.04;101283.22;5037063;28;20021;-49
2022/10/26 03:27:07;;;;;;;7.80;4.13;;;;;;;12.70;90.00;101282.38;5033844;28;20123;-51
2022/10/26 03:29:32;;;;;;;11.65;4.15;;;;;;;12.67;90.01;101284.00;5033351;28;21789;-51
2022/10/26 03:31:57;;;;;;;8.70;4.13;;;;;;;12.68;90.16;101278.00;5034183;28;20488;-51
2022/10/26 03:34:23;;;;;;;9.52;4.22;;;;;;;12.69;90.01;101284.94;5034416;28;20389;-50
2022/10/26 03:36:48;;;;;;;9.05;3.50;;;;;;;12.67;90.11;101277.13;5033212;28;20064;-51
2022/10/26 03:39:13;;;;;;;8.05;3.88;;;;;;;12.68;90.23;101278.00;5043493;28;20086;-51
2022/10/26 03:41:39;;;;;;;15.02;4.20;;;;;;;12.68;90.16;101276.31;5036532;28;20037;-49
2022/10/26 03:44:04;;;;;;;10.13;3.75;;;;;;;12.69;90.31;101274.59;5043838;28;20107;-51
2022/10/26 03:46:30;;;;;;;8.93;3.80;;;;;;;12.68;90.44;101263.41;5042467;28;20694;-50
2022/10/26 03:48:55;;;;;;;8.38;3.47;;;;;;;12.70;90.13;101272.06;5037998;28;20106;-51
2022/10/26 03:51:20;;;;;;;7.20;3.58;;;;;;;12.66;90.49;101274.50;5036927;28;20160;-51
2022/10/26 03:53:46;;;;;;;7.28;3.50;;;;;;;12.67;90.33;101271.97;5035414;28;20068;-51
2022/10/26 03:56:11;;;;;;;8.73;3.60;;;;;;;12.69;90.29;101272.91;5041257;28;20045;-50
2022/10/26 03:58:36;;;;;;;7.13;3.60;;;;;;;12.66;90.75;101275.38;5029813;28;20510;-51
2022/10/26 04:01:01;;;;;;;11.32;3.65;;;;;;;12.70;90.64;101277.22;5035712;28;20116;-50
2022/10/26 04:03:27;;;;;;;7.22;3.60;;;;;;;12.68;90.32;101273.75;5039262;28;20046;-51
2022/10/26 04:05:52;;;;;;;6.95;3.47;;;;;;;12.70;90.62;101268.59;5038539;28;20049;-51
2022/10/26 04:08:18;;;;;;;9.00;3.55;;;;;;;12.67;90.63;101264.22;5033120;28;20453;-51
2022/10/26 04:10:44;;;;;;;11.00;3.50;;;;;;;12.69;90.46;101272.03;5037558;28;20089;-49
2022/10/26 04:13:11;;;;;;;6.78;3.35;;;;;;;12.65;90.78;101273.63;5041606;28;20052;-51
2022/10/26 04:15:36;;;;;;;8.23;3.67;;;;;;;12.65;90.81;101276.22;5038725;28;20041;-50
2022/10/26 04:18:02;;;;;;;8.05;3.70;;;;;;;12.67;90.94;101278.84;5037970;28;20025;-51
2022/10/26 04:20:29;;;;;;;10.93;3.50;;;;;;;12.66;90.87;101274.50;5033086;28;20037;-50
2022/10/26 04:23:09;;;;;;;7.45;2.92;;;;;;;12.70;90.94;101273.78;5044039;28;20021;-51
2022/10/26 04:25:35;;;;;;;7.05;3.30;;;;;;;12.66;90.98;101271.94;5045814;28;20134;-50
2022/10/26 04:28:02;;;;;;;6.78;3.05;;;;;;;12.67;90.99;101269.38;5047516;28;20546;-51
2022/10/26 04:30:28;;;;;;;9.13;3.05;;;;;;;12.66;90.94;101259.03;5033560;28;20036;-51
2022/10/26 04:32:53;;;;;;;7.47;3.30;;;;;;;12.66;90.87;101264.19;5039849;28;20048;-51
2022/10/26 04:35:18;;;;;;;11.02;3.47;;;;;;;12.67;91.07;101263.34;5046269;28;20482;-50
2022/10/26 04:37:44;;;;;;;5.68;3.00;;;;;;;12.66;91.36;101257.31;5037755;28;20155;-51
2022/10/26 04:40:10;;;;;;;8.10;3.22;;;;;;;12.66;91.39;101254.75;5045599;28;20040;-51
2022/10/26 04:42:43;;;;;;;8.65;2.97;;;;;;;12.70;91.46;101254.00;5040766;28;20486;-50
2022/10/26 04:45:09;;;;;;;8.23;3.10;;;;;;;12.69;91.37;101260.00;5042434;28;20030;-51
2022/10/26 04:47:35;;;;;;;8.48;3.10;;;;;;;12.71;91.32;101254.88;5043464;28;20113;-51
2022/10/26 04:50:00;;;;;;;10.77;3.30;;;;;;;12.72;91.41;101261.78;5046298;28;21862;-52
2022/10/26 04:52:26;;;;;;;8.82;3.53;;;;;;;12.73;91.49;101256.63;5034101;28;20037;-51
2022/10/26 04:54:51;;;;;;;9.98;3.45;;;;;;;12.73;91.58;101259.22;5046204;28;20052;-51
2022/10/26 04:57:17;;;;;;;8.02;3.45;;;;;;;12.73;91.62;101255.78;5032211;28;20040;-49
2022/10/26 04:59:42;;;;;;;10.20;3.50;;;;;;;12.73;91.87;101266.09;5035607;28;20493;-51
2022/10/26 05:02:07;;;;;;;11.38;3.53;;;;;;;12.74;92.15;101262.66;5033697;28;20029;-51
2022/10/26 05:04:32;;;;;;;7.13;3.38;;;;;;;12.77;91.84;101263.63;5031210;28;20036;-51
2022/10/26 05:06:58;;;;;;;8.70;3.10;;;;;;;12.77;92.14;101265.34;5026617;28;20558;-52
2022/10/26 05:09:23;;;;;;;9.43;3.65;;;;;;;12.75;92.02;101257.56;5027624;28;20040;-49
2022/10/26 05:11:48;;;;;;;8.77;3.50;;;;;;;12.77;92.20;101257.59;5030202;28;20160;-51
2022/10/26 05:14:14;;;;;;;8.00;3.08;;;;;;;12.76;91.40;101272.22;5045707;28;20116;-51
2022/10/26 05:16:39;;;;;;;9.55;3.72;;;;;;;12.78;92.32;101256.75;5045278;28;20508;-49
2022/10/26 05:19:05;;;;;;;10.13;3.50;;;;;;;12.76;92.28;101261.03;5045007;28;20037;-51
2022/10/26 05:21:30;;;;;;;7.72;3.70;;;;;;;12.77;92.38;101258.47;5034854;28;20029;-52
2022/10/26 05:23:56;;;;;;;5.70;3.10;;;;;;;12.75;92.35;101262.72;5031387;28;20033;-51
2022/10/26 05:26:22;;;;;;;6.57;3.30;;;;;;;12.77;92.31;101258.47;5036633;28;20051;-51
2022/10/26 05:28:48;;;;;;;11.13;3.88;;;;;;;12.80;92.43;101267.97;5037678;28;20439;-51
2022/10/26 05:31:13;;;;;;;9.25;3.53;;;;;;;12.78;92.09;101267.09;5030241;28;20045;-51
2022/10/26 05:33:38;;;;;;;11.23;3.80;;;;;;;12.78;92.63;101264.50;5030345;28;20057;-52
2022/10/26 05:36:04;;;;;;;9.80;3.88;;;;;;;12.78;92.59;101275.69;5038185;28;20102;-51
2022/10/26 05:38:30;;;;;;;6.22;3.30;;;;;;;12.75;92.61;101275.63;5045049;28;20135;-52
2022/10/26 05:40:55;;;;;;;9.65;3.78;;;;;;;12.78;92.62;101273.13;5041127;28;20041;-51
2022/10/26 05:43:22;;;;;;;9.55;3.55;;;;;;;12.77;92.57;101276.53;5030224;28;20064;-50
2022/10/26 05:45:51;;;;;;;6.93;3.20;;;;;;;12.77;92.66;101273.97;5043216;28;20029;-51
2022/10/26 05:48:16;;;;;;;7.60;3.40;;;;;;;12.78;92.68;101275.69;5049803;28;20552;-51
2022/10/26 05:50:42;;;;;;;8.13;3.55;;;;;;;12.78;92.77;101278.28;5061551;28;20036;-50
2022/10/26 05:53:07;;;;;;;11.30;3.55;;;;;;;12.75;93.03;101278.22;5042474;28;20029;-51
2022/10/26 05:55:33;;;;;;;10.88;3.78;;;;;;;12.76;93.33;101277.38;5046376;28;20036;-49
2022/10/26 05:57:59;;;;;;;9.85;3.42;;;;;;;12.82;93.40;101285.28;5046396;28;20389;-51
2022/10/26 06:00:27;;;;;;;11.07;3.50;;;;;;;12.82;93.46;101281.81;5046284;28;20028;-51
2022/10/26 06:02:57;;;;;;;10.40;3.45;;;;;;;12.86;93.42;101281.94;5044414;28;20056;-51
2022/10/26 06:05:27;;;;;;;8.43;3.28;;;;;;;12.85;93.62;101294.78;5039781;28;20054;-51
2022/10/26 06:07:52;;;;;;;10.75;3.60;;;;;;;12.88;93.07;101297.47;5041441;28;20029;-49
2022/10/26 06:10:19;;;;;;;9.60;3.25;;;;;;;12.87;93.42;101301.75;5043921;28;21490;-51
2022/10/26 06:12:44;;;;;;;8.48;3.35;;;;;;;12.84;93.39;101300.78;5043480;28;20061;-51
2022/10/26 06:15:19;;;;;;;7.55;3.17;;;;;;;12.87;93.53;101291.44;5043260;28;20053;-51
2022/10/26 06:17:56;;;;;;;9.82;3.63;;;;;;;12.88;93.43;101293.19;5044525;28;20033;-51
2022/10/26 06:20:34;;;;;;;10.30;3.90;;;;;;;12.87;93.45;101296.59;5041062;28;20036;-52
2022/10/26 06:23:00;;;;;;;13.85;3.88;;;;;;;12.87;93.69;101299.19;5036861;28;20021;-51
2022/10/26 06:25:54;;;;;;;11.82;4.30;;;;;;;12.94;93.47;101305.38;5037010;28;20021;-50
2022/10/26 06:28:48;;;;;;;13.88;3.80;;;;;;;12.93;93.42;101301.03;5041103;28;20389;-51
2022/10/26 06:31:14;;;;;;;7.70;3.70;;;;;;;12.86;93.70;101294.84;5037223;28;20536;-52
2022/10/26 06:33:40;;;;;;;12.70;4.10;;;;;;;12.87;93.89;101296.59;5037177;28;20029;-51
2022/10/26 06:36:25;;;;;;;9.48;3.40;;;;;;;12.89;93.63;101294.03;5041659;28;20489;-52
2022/10/26 06:39:01;;;;;;;11.38;3.45;;;;;;;12.89;93.44;101284.59;5040981;28;20398;-51
2022/10/26 06:41:29;;;;;;;8.52;3.60;;;;;;;12.88;93.25;101287.16;5039744;28;20469;-51
2022/10/26 06:43:54;;;;;;;9.23;3.60;;;;;;;12.87;93.39;101293.13;5036347;28;20561;-51
2022/10/26 06:46:47;;;;;;;10.65;3.55;;;;;;;12.92;93.55;101285.50;5031009;28;20088;-51
2022/10/26 06:49:15;;;;;;;9.00;3.30;;;;;;;12.89;93.66;101282.00;5034698;28;20496;-49
2022/10/26 06:52:21;;;;;;;10.53;3.80;;;;;;;12.96;93.44;101279.59;5043232;28;20100;-51
2022/10/26 06:54:50;;;;;;;7.47;3.30;;;;;;;12.91;93.73;101283.75;5037043;28;20037;-50
2022/10/26 06:57:17;;;;;;;11.13;3.75;;;;;;;12.93;93.71;101282.09;5044571;28;20029;-51
2022/10/26 07:00:01;;;;;;;12.90;3.85;;;;;;;12.96;93.56;101275.28;5046716;28;20436;-50
2022/10/26 07:02:26;;;;;;;9.02;3.88;;;;;;;12.95;93.39;101283.00;5047114;28;20060;-51
2022/10/26 07:04:51;;;;;;;9.27;3.63;;;;;;;12.95;93.59;101286.47;5051238;28;20060;-53
2022/10/26 07:07:19;;;;;;;7.78;3.90;;;;;;;12.96;93.63;101288.19;5044866;28;20037;-48
2022/10/26 07:09:45;;;;;;;9.82;3.97;;;;;;;12.97;93.71;101287.34;5049715;28;20111;-53
2022/10/26 07:12:10;;;;;;;8.00;3.88;;;;;;;12.97;93.33;101294.22;5044014;28;20082;-51
2022/10/26 07:14:36;;;;;;;11.93;3.63;;;;;;;13.01;93.35;101293.47;5050188;28;20108;-51
2022/10/26 07:17:01;;;;;;;12.93;3.70;;;;;;;13.01;93.64;101293.47;5049748;28;20041;-50
2022/10/26 07:19:27;;;;;;;8.90;3.60;;;;;;;13.03;93.54;101312.44;5046195;28;20474;-50
2022/10/26 07:21:58;;;;;;;8.10;4.00;;;;;;;13.01;93.67;101319.28;5036571;28;20025;-51
2022/10/26 07:24:23;;;;;;;10.18;3.70;;;;;;;13.02;93.47;101315.88;5044522;28;20040;-51
2022/10/26 07:26:48;;;;;;;11.10;4.00;;;;;;;13.03;93.47;101318.50;5034502;28;20033;-48
2022/10/26 07:29:16;;;;;;;8.00;4.03;;;;;;;13.05;93.50;101323.72;5043462;28;20040;-51
2022/10/26 07:31:42;;;;;;;10.60;4.10;;;;;;;13.04;93.81;101324.53;5036622;28;20443;-50
2022/10/26 07:34:07;;;;;;;11.45;4.10;;;;;;;13.05;94.39;101334.03;5039269;28;20033;-51
2022/10/26 07:36:35;;;;;;;9.52;4.60;;;;;;;13.05;94.47;101332.31;5043940;28;20561;-51
2022/10/26 07:39:01;;;;;;;9.73;4.20;;;;;;;13.09;94.27;101334.13;5028798;28;20116;-50
2022/10/26 07:41:27;;;;;;;9.95;4.20;;;;;;;13.09;94.80;101318.63;5039645;28;20033;-50
2022/10/26 07:43:52;;;;;;;12.30;4.30;;;;;;;13.12;94.56;101328.19;5044543;28;20033;-51
2022/10/26 07:46:18;;;;;;;10.10;4.43;;;;;;;13.15;94.12;101323.97;5041574;28;20040;-50
2022/10/26 07:48:43;;;;;;;8.38;4.40;;;;;;;13.16;94.63;101337.75;5050066;28;20079;-51
2022/10/26 07:51:08;;;;;;;11.98;3.92;;;;;;;13.19;94.59;101336.97;5048456;28;20121;-51
2022/10/26 07:53:34;;;;;;;7.03;3.78;;;;;;;13.24;94.36;101356.94;5043040;28;20025;-49
2022/10/26 07:55:59;;;;;;;6.90;3.70;;;;;;;13.29;95.00;101368.25;5045904;28;20025;-50
2022/10/26 07:58:26;;;;;;;11.45;3.65;;;;;;;13.34;95.15;101370.94;5046115;28;20435;-51
2022/10/26 08:00:52;;;;;;;9.20;4.05;;;;;;;13.38;94.63;101363.31;5045179;28;20040;-51
2022/10/26 08:03:18;;;;;;;6.40;3.58;;;;;;;13.39;95.11;101362.47;5036347;28;20478;-51
2022/10/26 08:05:54;;;;;;;7.47;3.50;;;;;;;13.43;94.85;101359.97;5045528;28;20053;-49
2022/10/26 08:08:20;;;;;;;8.02;3.60;;;;;;;13.45;95.48;101364.31;5047020;28;20469;-50
2022/10/26 08:10:46;;;;;;;7.00;3.70;;;;;;;13.49;95.76;101365.28;5043543;28;20024;-53
2022/10/26 08:13:12;;;;;;;9.73;3.70;;;;;;;13.56;95.25;101369.75;5041564;28;20056;-51
2022/10/26 08:15:38;;;;;;;9.30;3.75;;;;;;;13.61;95.69;101378.50;5039366;28;20565;-50
2022/10/26 08:18:04;;;;;;;6.85;3.80;;;;;;;13.69;95.59;101380.41;5040576;28;20033;-51
2022/10/26 08:20:29;;;;;;;10.38;3.95;;;;;;;13.79;95.75;101378.94;5041921;28;20041;-51
2022/10/26 08:22:56;;;;;;;8.10;3.75;;;;;;;13.87;95.42;101373.94;5036974;28;20112;-51
2022/10/26 08:25:21;;;;;;;10.23;3.90;;;;;;;13.91;95.63;101370.56;5036314;28;20119;-51
2022/10/26 08:27:46;;;;;;;5.95;3.38;;;;;;;13.95;95.59;101362.03;5043540;28;20021;-51
2022/10/26 08:30:12;;;;;;;7.43;3.47;;;;;;;13.98;95.77;101367.28;5041116;28;20056;-51
2022/10/26 08:32:37;;;;;;;9.57;3.60;;;;;;;14.03;95.77;101370.84;5048326;28;20035;-51
2022/10/26 08:35:03;;;;;;;6.68;3.20;;;;;;;14.15;95.80;101383.19;5034486;28;20936;-51
2022/10/26 08:37:28;;;;;;;9.55;2.70;;;;;;;14.23;95.79;101381.63;5037782;28;20037;-51
2022/10/26 08:39:53;;;;;;;7.03;3.10;;;;;;;14.34;96.13;101382.72;5038084;28;20102;-51
2022/10/26 08:42:28;;;;;;;7.03;2.58;;;;;;;14.47;95.76;101389.06;5041728;28;20043;-51
2022/10/26 08:45:00;;;;;;;11.73;3.00;;;;;;;14.70;94.77;101381.75;5041999;28;20036;-51
2022/10/26 08:47:36;;;;;;;7.20;2.63;;;;;;;14.87;94.34;101390.72;5038958;28;20087;-52
2022/10/26 08:50:11;;;;;;;5.70;2.45;;;;;;;15.07;94.32;101383.31;5043535;28;20100;-52
2022/10/26 08:52:46;;;;;;;7.63;2.60;;;;;;;15.27;93.02;101391.41;5040224;28;20465;-51
2022/10/26 08:55:18;;;;;;;5.70;2.60;;;;;;;15.49;92.20;101379.72;5040579;28;20013;-51
2022/10/26 08:57:46;;;;;;;4.47;1.88;;;;;;;15.75;91.37;101374.94;5035861;28;20112;-51
2022/10/26 09:00:17;;;;;;;6.27;2.10;;;;;;;16.02;89.70;101377.97;5033934;28;20024;-52
2022/10/26 09:02:43;;;;;;;6.93;1.98;;;;;;;16.21;88.49;101370.44;5028778;28;20087;-51
2022/10/26 09:05:16;;;;;;;7.93;2.08;;;;;;;16.48;87.84;101370.75;5030553;28;20025;-50
2022/10/26 09:08:10;;;;;;;6.40;1.80;;;;;;;16.72;87.44;101358.94;5036068;28;20048;-47
2022/10/26 09:10:52;;;;;;;7.05;2.15;;;;;;;16.99;85.57;101368.75;5041372;28;20500;-54
2022/10/26 09:13:36;;;;;;;4.78;2.00;;;;;;;17.21;85.71;101375.88;5036821;28;20473;-53
2022/10/26 09:16:22;;;;;;;5.18;1.90;;;;;;;17.41;84.56;101370.84;5038111;28;20182;-53
2022/10/26 09:19:19;;;;;;;4.57;2.00;;;;;;;17.61;83.31;101391.81;5030378;28;20565;-50
2022/10/26 09:22:02;;;;;;;6.15;1.80;;;;;;;17.81;83.26;101398.06;5023799;28;20041;-48
2022/10/26 09:24:31;;;;;;;5.18;2.05;;;;;;;17.81;82.61;101394.59;5040811;28;20029;-51
2022/10/26 09:27:06;;;;;;;6.15;1.88;;;;;;;17.82;81.33;101399.78;5040215;28;20034;-50
2022/10/26 09:29:39;;;;;;;15.32;3.15;;;;;;;17.85;81.44;101409.38;5035764;28;20025;-49
2022/10/26 09:32:14;;;;;;;9.98;2.50;;;;;;;17.85;82.06;101428.44;5039105;28;20111;-50
2022/10/26 09:34:47;;;;;;;6.70;2.15;;;;;;;17.89;82.67;101416.31;5039086;28;20023;-50
2022/10/26 09:37:28;;;;;;;5.72;2.30;;;;;;;17.92;82.94;101421.56;5040037;28;20025;-51
2022/10/26 09:39:58;;;;;;;14.90;2.45;;;;;;;17.89;82.01;101442.31;5027253;28;20504;-51
2022/10/26 09:42:39;;;;;;;8.77;1.90;;;;;;;17.90;82.39;101441.50;5029521;28;20061;-50
2022/10/26 09:45:15;;;;;;;6.47;2.17;;;;;;;17.89;82.12;101439.72;5028593;28;20478;-51
2022/10/26 09:47:48;;;;;;;7.70;2.10;;;;;;;17.87;81.77;101437.13;5034132;28;20036;-48
2022/10/26 09:50:26;;;;;;;5.95;2.33;;;;;;;17.87;82.21;101450.13;5040435;28;20091;-50
2022/10/26 09:52:51;;;;;;;11.85;2.40;;;;;;;17.82;82.09;101443.16;5032436;28;20029;-50
2022/10/26 09:55:16;;;;;;;8.77;2.10;;;;;;;17.80;82.53;101444.88;5037173;28;20033;-48
2022/10/26 09:57:46;;;;;;;7.53;2.20;;;;;;;17.82;82.31;101456.16;5036556;28;20030;-48
2022/10/26 10:00:16;;;;;;;7.90;2.10;;;;;;;17.79;82.40;101454.41;5040536;28;20095;-49
2022/10/26 10:02:49;;;;;;;10.57;2.17;;;;;;;17.80;82.86;101453.53;5034153;28;20048;-46
2022/10/26 10:05:32;;;;;;;8.13;2.20;;;;;;;17.81;82.63;101457.88;5039275;28;20152;-51
2022/10/26 10:08:19;;;;;;;9.00;2.45;;;;;;;17.83;83.06;101473.50;5035081;28;20045;-52
2022/10/26 10:10:57;;;;;;;9.73;1.90;;;;;;;17.84;84.21;101472.66;5034641;28;20040;-45
2022/10/26 10:13:24;;;;;;;6.32;2.03;;;;;;;17.84;83.44;101476.13;5036008;28;20577;-49
2022/10/26 10:15:52;;;;;;;4.32;2.00;;;;;;;17.89;83.47;101476.16;5032587;28;20040;-51
2022/10/26 10:18:22;;;;;;;6.53;2.22;;;;;;;17.91;83.22;101479.66;5042478;28;20124;-51
2022/10/26 10:20:56;;;;;;;8.15;2.25;;;;;;;17.95;83.48;101482.28;5037072;28;20441;-55
2022/10/26 10:23:31;;;;;;;5.13;2.30;;;;;;;18.01;83.16;101498.78;5036167;28;20114;-51
2022/10/26 10:26:11;;;;;;;8.27;2.30;;;;;;;18.01;84.18;101490.97;5032266;28;20033;-49
2022/10/26 10:28:39;;;;;;;6.85;2.17;;;;;;;18.05;83.59;101493.63;5023676;28;20148;-52
2022/10/26 10:31:25;;;;;;;6.95;2.05;;;;;;;18.08;83.22;101508.38;5035188;28;20041;-51
2022/10/26 10:33:51;;;;;;;8.13;2.05;;;;;;;18.07;82.98;101509.25;5039872;28;20029;-50
2022/10/26 10:36:20;;;;;;;8.00;2.08;;;;;;;18.11;83.27;101509.28;5039887;28;20075;-51
2022/10/26 10:38:48;;;;;;;7.90;2.20;;;;;;;18.16;82.69;101517.13;5034943;28;20439;-50
2022/10/26 10:41:36;;;;;;;11.30;2.40;;;;;;;18.22;83.07;101519.78;5032954;28;20427;-51
2022/10/26 10:44:05;;;;;;;7.90;2.30;;;;;;;18.25;82.30;101516.31;5038978;28;20063;-49
2022/10/26 10:46:31;;;;;;;7.32;2.20;;;;;;;18.28;82.61;101522.44;5032510;28;20051;-50
2022/10/26 10:49:03;;;;;;;6.78;2.08;;;;;;;18.27;82.80;101541.53;5036794;28;20029;-49
2022/10/26 10:51:35;;;;;;;6.80;2.17;;;;;;;18.28;82.81;101537.19;5041901;28;20071;-51
2022/10/26 10:54:01;;;;;;;8.40;2.22;;;;;;;18.26;82.28;101546.69;5032964;28;20049;-49
2022/10/26 10:56:47;;;;;;;6.78;2.17;;;;;;;18.30;83.18;101545.88;5035067;28;20033;-49
2022/10/26 10:59:37;;;;;;;7.88;1.90;;;;;;;18.32;82.95;101541.53;5038635;28;20043;-52
2022/10/26 11:02:40;;;;;;;6.88;2.00;;;;;;;18.37;82.89;101558.06;5035234;28;20512;-51
2022/10/26 11:05:25;;;;;;;4.60;2.10;;;;;;;18.33;82.36;101551.97;5033442;28;20461;-50
2022/10/26 11:08:01;;;;;;;7.57;2.13;;;;;;;18.26;81.81;101562.31;5030504;28;20429;-51
2022/10/26 11:10:33;;;;;;;5.35;1.70;;;;;;;18.19;81.92;101564.88;5041629;28;20017;-51
2022/10/26 11:13:03;;;;;;;7.95;1.90;;;;;;;18.20;82.36;101570.94;5032207;28;20025;-50
2022/10/26 11:15:33;;;;;;;9.70;2.00;;;;;;;18.21;82.72;101567.50;5032335;28;20039;-50
2022/10/26 11:18:27;;;;;;;6.95;2.10;;;;;;;18.34;82.94;101569.34;5036428;28;20033;-52
2022/10/26 11:21:01;;;;;;;7.72;2.00;;;;;;;18.46;82.48;101573.75;5029482;28;20060;-50
2022/10/26 11:23:48;;;;;;;7.53;2.28;;;;;;;18.54;82.26;101576.41;5034946;28;20488;-51
2022/10/26 11:26:16;;;;;;;7.10;2.05;;;;;;;18.53;82.41;101579.88;5036714;28;20034;-51
2022/10/26 11:28:58;;;;;;;4.60;2.10;;;;;;;18.60;82.68;101592.94;5032183;28;20075;-50
2022/10/26 11:31:32;;;;;;;4.38;2.08;;;;;;;18.61;82.26;101592.06;5034898;28;20029;-52
2022/10/26 11:34:14;;;;;;;7.25;2.08;;;;;;;18.70;82.42;101589.59;5035524;28;20045;-50
2022/10/26 11:36:42;;;;;;;8.32;2.30;;;;;;;18.66;81.52;101586.91;5034078;28;20486;-51
2022/10/26 11:39:22;;;;;;;5.90;2.05;;;;;;;18.68;82.08;101591.28;5038044;28;20031;-50
2022/10/26 11:41:54;;;;;;;7.03;2.45;;;;;;;18.79;81.21;101583.53;5033948;28;20423;-50